createdAt,value
2022-11-18T00:01:22.697Z,164.29
2022-11-18T00:16:22.962Z,154.30
2022-11-18T00:31:22.944Z,124.09
2022-11-18T00:46:22.969Z,129.65
2022-11-18T01:01:23.056Z,138.69
2022-11-18T01:16:23.029Z,128.21
2022-11-18T01:31:23.039Z,137.37
2022-11-18T01:46:22.913Z,140.41
2022-11-18T02:01:23.149Z,156.25
2022-11-18T02:16:23.160Z,132.71
2022-11-18T02:31:23.219Z,142.44
2022-11-18T02:46:23.192Z,140.16
2022-11-18T03:01:23.247Z,134.62
2022-11-18T03:16:23.326Z,133.46
2022-11-18T03:31:23.253Z,147.92
2022-11-18T03:46:23.352Z,151.99
2022-11-18T04:01:23.426Z,186.77
2022-11-18T04:16:23.457Z,172.87
2022-11-18T04:31:23.452Z,186.98
2022-11-18T04:46:23.448Z,179.04
2022-11-18T05:01:23.554Z,186.14
2022-11-18T05:16:23.665Z,192.09
2022-11-18T05:31:23.652Z,211.37
2022-11-18T05:46:23.760Z,187.14
2022-11-18T06:01:23.693Z,158.85
2022-11-18T06:16:23.623Z,173.21
2022-11-18T06:31:23.669Z,147.52
2022-11-18T06:46:23.692Z,157.85
2022-11-18T07:01:23.906Z,177.18
2022-11-18T07:16:23.924Z,170.18
2022-11-18T07:31:23.640Z,201.57
2022-11-18T07:46:23.895Z,219.58
2022-11-18T08:01:23.965Z,194.65
2022-11-18T08:16:23.894Z,192.90
2022-11-18T08:31:23.943Z,211.08
2022-11-18T08:46:23.955Z,168.27
2022-11-18T09:01:24.147Z,161.21
2022-11-18T09:16:27.636Z,196.06
2022-11-18T09:31:23.967Z,174.89
2022-11-18T09:46:23.998Z,190.93
2022-11-18T10:01:26.320Z,192.05
2022-11-18T10:16:24.085Z,215.42
2022-11-18T10:31:23.991Z,222.03
2022-11-18T10:46:24.192Z,246.15
2022-11-18T11:01:24.186Z,219.85
2022-11-18T11:16:26.437Z,201.81
2022-11-18T11:31:24.245Z,207.05
2022-11-18T11:46:24.285Z,203.86
2022-11-18T12:01:24.409Z,197.10
2022-11-18T12:16:24.382Z,218.27
2022-11-18T12:31:24.378Z,197.64
2022-11-18T12:46:24.418Z,216.45
2022-11-18T13:01:24.504Z,207.99
2022-11-18T13:16:24.533Z,210.25
2022-11-18T13:31:24.461Z,216.88
2022-11-18T13:46:24.547Z,212.81
2022-11-18T14:01:24.704Z,213.54
2022-11-18T14:16:24.561Z,204.26
2022-11-18T14:31:24.712Z,217.09
2022-11-18T14:46:24.713Z,214.92
2022-11-18T15:01:29.065Z,203.23
2022-11-18T15:16:24.753Z,206.20
2022-11-18T15:31:24.802Z,207.59
2022-11-18T15:46:24.987Z,166.82
2022-11-18T16:01:24.920Z,208.29
2022-11-18T16:16:24.901Z,193.93
2022-11-18T16:31:24.873Z,132.26
2022-11-18T16:46:25.008Z,132.02
2022-11-18T17:01:29.363Z,129.65
2022-11-18T17:16:24.918Z,132.44
2022-11-18T17:31:25.091Z,120.65
2022-11-18T17:46:25.118Z,135.00
2022-11-18T18:01:25.227Z,134.18
2022-11-18T18:16:25.352Z,129.93
2022-11-18T18:31:25.236Z,99.61
2022-11-18T18:46:25.225Z,168.76
2022-11-18T19:01:25.287Z,104.05
2022-11-18T19:16:25.340Z,86.41
2022-11-18T19:31:25.195Z,68.03
2022-11-18T19:46:28.955Z,68.37
2022-11-18T20:01:25.376Z,70.45
2022-11-18T20:16:25.264Z,71.05
2022-11-18T20:31:25.454Z,70.60
2022-11-18T20:46:25.383Z,80.37
2022-11-18T21:01:25.584Z,80.93
2022-11-18T21:16:25.592Z,73.41
2022-11-18T21:31:25.700Z,76.25
2022-11-18T21:46:25.546Z,66.83
2022-11-18T22:01:25.547Z,66.19
2022-11-18T22:16:25.613Z,71.60
2022-11-18T22:31:25.577Z,78.14
2022-11-18T22:46:25.689Z,87.80
2022-11-18T23:01:25.752Z,77.47
2022-11-18T23:16:25.584Z,85.17
2022-11-18T23:31:25.848Z,75.01
2022-11-18T23:46:25.832Z,76.66
